aviador You're here:

LFBU Decoded Metar

ANGOULEME in FRANCE
Report Time2018-06-24 20:00:00
UTC Time2018-06-24 20:34:52
Flight Rules vfr VFR
Wind030° at 05 kt
W.Decomp.*RWY 10: 1.8 kt HW 4.7 kt LCW
W.Rank030° ranks 1
Current wind is below 030° avg. (7.0)
Visibility9999 m
Phenomena:N/A
Clouds:N/A
Expected CloudBase > 3,200 ft AGL from Temp-Dew spread
CeilingNone
Temp19°C (ISA +5)
Dew Point11°C (60% RH)
AAT17.5°C
QNH1019 hPa
Density Alt981 ft
Elevation436 ft
Report Wrong Elevation
Raw Report
METAR LFBU 242000Z AUTO 03005KT CAVOK 19/11 Q1019 NOSIG=

Extra information for LFBU:More info

Metar Taf Metar & Taf Last 4 Metars F.Rules Stats Wind Profile Meteogram Temp Stats Airport Information Weather charts Add Link Nearby VenuesMetar ALERT Operation Metar Decoded Social comments